Bei Facebook empfehlenBei Twitter postenGoogle plusPinterest

Das Wetter im Erzgebirge am 21.08.2015

Wetter und Klima am 21.08.2015 Holzhau im Erzgebirge (630m ü.NN)
Letzte gemessene Temperatur und Uhrzeit der Messung23:45:00 Uhr8.50 °C
Temperatur (Maximum / Höchstwert) und Uhrzeit der Messung15:30:00 Uhr23.00 °C
Temperatur (Minimum / Tiefstwert) und Uhrzeit der Messung06:45:006.50 °C
Errechneter Absolutwert der Temperaturschwankungen zwischen Tmin und Tmax des Tages16.50 K
Errechnete Tagesmitteltemperatur14.50625 °C
Gesamt - Niederschlag des Tages (in flüssiger Form)0.00 Liter / m²
Luftdruck (Maximum / Höchstwert) und Zeitpunkt der Messung13:15:00 Uhr1022.30 hPa
Luftdruck (Minimum / Tiefstwert) und Zeitpunkt der Messung23:45:00 Uhr1021.20 hPa
Errechneter Absolutwert der Luftdruckschwankungen des Tages1.10 hPa
Höchste gemessene Windgeschwindigkeit und Uhrzeit der Messung23:45:00 Uhr0.00 km/h
Errechnete Windhäufigkeit in Relation zu den Messwerten des Tages0.00000 %
Niedrigste Windkühle (Windchill) und Zeitpunkt der Messung06:45:00 Uhr6.50 °C
Taupunkt (Maximum / Höchstwert) und Uhrzeit der Messung09:45:00 Uhr16.40 °C
Taupunkt (Minimum / Tiefstwert) und Uhrzeit der Messung06:45:005.60 °C
Anzahl der automatisch eingelesenen Messwerte 96

Detaillierte Wetter- und Klima- Messwerte für den 21.08.2015 in Holzhau im Erzgebirge (630m ü.NN)
ZeitTemperaturLuftdruckRel. LuftfeuchteWindWindrichtungWindchillTaupunktNiederschlag l/m²
23:45:008.50 °C1021.20 hPa83.00 %5.80 °C 
23:30:008.70 °C1021.20 hPa82.00 %5.80 °C 
23:15:009.00 °C1021.30 hPa81.00 %5.90 °C 
23:00:009.30 °C1021.20 hPa80.00 %6.00 °C 
22:45:009.60 °C1021.30 hPa80.00 %6.30 °C 
22:30:0010.00 °C1021.40 hPa79.00 %6.50 °C 
22:15:0010.30 °C1021.50 hPa78.00 %6.60 °C 
22:00:0010.50 °C1021.50 hPa77.00 %6.60 °C 
21:45:0010.90 °C1021.50 hPa75.00 %6.60 °C 
21:30:0011.30 °C1021.80 hPa74.00 %6.80 °C 
21:15:0011.80 °C1021.60 hPa72.00 %6.90 °C 
21:00:0012.30 °C1021.60 hPa70.00 %7.00 °C 
20:45:0013.10 °C1021.60 hPa68.00 %7.30 °C 
20:30:0014.10 °C1021.60 hPa66.00 %7.90 °C 
20:15:0015.30 °C1021.50 hPa63.00 %8.30 °C 
20:00:0016.80 °C1021.40 hPa60.00 %9.00 °C 
19:45:0018.10 °C1021.40 hPa56.00 %9.20 °C 
19:30:0019.40 °C1021.30 hPa52.00 %9.30 °C 
19:15:0020.20 °C1021.40 hPa49.00 %9.20 °C 
19:00:0020.80 °C1021.30 hPa47.00 %9.10 °C 
18:45:0020.90 °C1021.20 hPa47.00 %9.20 °C 
18:30:0020.90 °C1021.20 hPa47.00 %9.20 °C 
18:15:0021.40 °C1021.20 hPa46.00 %9.30 °C 
18:00:0022.10 °C1021.20 hPa46.00 %9.90 °C 
17:45:0022.10 °C1021.30 hPa47.00 %10.30 °C 
17:30:0022.10 °C1021.40 hPa47.00 %10.30 °C 
17:15:0021.90 °C1021.40 hPa47.00 %10.10 °C 
17:00:0022.10 °C1021.40 hPa46.00 %9.90 °C 
16:45:0021.80 °C1021.50 hPa49.00 %10.60 °C 
16:30:0020.90 °C1021.60 hPa48.00 %9.50 °C 
16:15:0022.20 °C1021.70 hPa46.00 %10.00 °C 
16:00:0022.70 °C1021.60 hPa49.00 %11.40 °C 
15:45:0022.30 °C1021.70 hPa48.00 %10.80 °C 
15:30:0023.00 °C1021.80 hPa48.00 %11.40 °C 
15:15:0022.30 °C1021.70 hPa50.00 %11.40 °C 
15:00:0022.30 °C1021.70 hPa47.00 %10.50 °C 
14:45:0022.90 °C1022.00 hPa49.00 %11.60 °C 
14:30:0023.00 °C1022.00 hPa49.00 %11.70 °C 
14:15:0022.50 °C1022.00 hPa48.00 %10.90 °C 
14:00:0022.60 °C1022.10 hPa50.00 %11.70 °C 
13:45:0022.20 °C1022.00 hPa49.00 %11.00 °C 
13:30:0021.90 °C1022.20 hPa50.00 %11.00 °C 
13:15:0021.80 °C1022.30 hPa50.00 %10.90 °C 
13:00:0021.60 °C1022.10 hPa52.00 %11.30 °C 
12:45:0021.00 °C1022.10 hPa51.00 %10.50 °C 
12:30:0021.60 °C1022.10 hPa51.00 %11.00 °C 
12:15:0021.60 °C1022.10 hPa51.00 %11.00 °C 
12:00:0021.40 °C1022.20 hPa52.00 %11.10 °C 
11:45:0021.60 °C1022.20 hPa53.00 %11.60 °C 
11:30:0021.10 °C1022.30 hPa53.00 %11.20 °C 
11:15:0020.90 °C1022.10 hPa55.00 %11.50 °C 
11:00:0020.10 °C1022.20 hPa56.00 %11.10 °C 
10:45:0020.00 °C1022.20 hPa59.00 %11.70 °C 
10:30:0019.50 °C1022.30 hPa65.00 %12.70 °C 
10:15:0018.90 °C1022.30 hPa74.00 %14.20 °C 
10:00:0018.90 °C1022.20 hPa82.00 %15.80 °C 
09:45:0017.90 °C1022.10 hPa91.00 %16.40 °C 
09:30:0016.50 °C1022.20 hPa93.00 %15.40 °C 
09:15:0015.30 °C1022.20 hPa95.00 %14.50 °C 
09:00:0014.10 °C1022.20 hPa95.00 %13.30 °C 
08:45:0012.90 °C1022.20 hPa95.00 %12.10 °C 
08:30:0011.80 °C1022.20 hPa95.00 %11.00 °C 
08:15:0010.80 °C1022.10 hPa95.00 %10.00 °C 
08:00:009.60 °C1022.20 hPa95.00 %8.80 °C 
07:45:008.30 °C1022.20 hPa95.00 %7.50 °C 
07:30:007.70 °C1022.00 hPa94.00 %6.80 °C 
07:15:007.20 °C1022.10 hPa94.00 %6.30 °C 
07:00:006.70 °C1022.20 hPa94.00 %5.80 °C 
06:45:006.50 °C1022.10 hPa94.00 %5.60 °C 
06:30:006.60 °C1022.00 hPa94.00 %5.70 °C 
06:15:006.90 °C1021.90 hPa94.00 %6.00 °C 
06:00:007.10 °C1021.70 hPa93.00 %6.00 °C 
05:45:007.50 °C1021.60 hPa93.00 %6.40 °C 
05:30:007.90 °C1021.70 hPa94.00 %7.00 °C 
05:15:007.90 °C1021.70 hPa93.00 %6.80 °C 
05:00:008.10 °C1021.70 hPa93.00 %7.00 °C 
04:45:008.10 °C1021.70 hPa93.00 %7.00 °C 
04:30:008.10 °C1021.60 hPa93.00 %7.00 °C 
04:15:007.90 °C1021.70 hPa93.00 %6.80 °C 
04:00:007.60 °C1022.00 hPa93.00 %6.50 °C 
03:45:007.40 °C1022.00 hPa92.00 %6.20 °C 
03:30:007.30 °C1021.90 hPa92.00 %6.10 °C 
03:15:007.30 °C1021.90 hPa92.00 %6.10 °C 
03:00:007.40 °C1021.90 hPa92.00 %6.20 °C 
02:45:007.40 °C1022.00 hPa92.00 %6.20 °C 
02:30:007.50 °C1022.00 hPa92.00 %6.30 °C 
02:15:007.60 °C1021.90 hPa91.00 %6.20 °C 
02:00:007.80 °C1022.00 hPa91.00 %6.40 °C 
01:45:007.90 °C1022.20 hPa91.00 %6.50 °C 
01:30:008.10 °C1022.10 hPa91.00 %6.70 °C 
01:15:008.10 °C1022.20 hPa91.00 %6.70 °C 
01:00:008.30 °C1022.10 hPa91.00 %6.90 °C 
00:45:008.40 °C1022.30 hPa90.00 %6.90 °C 
00:30:008.80 °C1022.30 hPa90.00 %7.30 °C 
00:15:009.10 °C1022.20 hPa90.00 %7.50 °C 
00:00:009.10 °C1022.20 hPa89.00 %7.40 °C 

Permanenter Link zu dieser Seite: Wetter im Erzgebirge am 21.08.2015
Performance-Info: Die Erstellung der Seite / Statistik(en) / Tabelle(n) erforderte 5 Datenbankserver-Abfrage(n) und dauerte 99 Millisekunden. (Dieser Messwert ist von der Gesamt-Auslastung des Servers abhängig.)
Erzgebirge - Wetter | Erzgebirge - Wetter (Mobilgeräte) | Komplette Klimadatenbank